createdAt,value
2019-03-12T00:00:13.633Z,0.20
2019-03-12T00:02:42.281Z,0.30
2019-03-12T00:05:10.970Z,0.40
2019-03-12T00:07:39.625Z,0.30
2019-03-12T00:10:09.320Z,0.30
2019-03-12T00:12:37.982Z,0.40
2019-03-12T00:15:07.442Z,0.40
2019-03-12T00:17:36.139Z,0.30
2019-03-12T00:20:06.373Z,0.30
2019-03-12T00:22:35.063Z,0.25
2019-03-12T00:25:03.716Z,0.20
2019-03-12T00:27:32.423Z,0.20
2019-03-12T00:30:01.059Z,0.30
2019-03-12T00:32:29.712Z,0.20
2019-03-12T00:34:58.382Z,0.23
2019-03-12T00:37:27.022Z,0.30
2019-03-12T00:39:55.698Z,0.40
2019-03-12T00:42:24.346Z,0.50
2019-03-12T00:44:53.053Z,0.50
2019-03-12T00:47:21.686Z,0.40
2019-03-12T00:49:50.327Z,0.30
2019-03-12T00:52:19.001Z,0.33
2019-03-12T00:54:47.641Z,0.23
2019-03-12T00:57:16.341Z,0.30
2019-03-12T00:59:44.974Z,0.40
2019-03-12T01:02:13.601Z,0.35
2019-03-12T01:04:42.273Z,0.33
2019-03-12T01:07:10.923Z,0.30
2019-03-12T01:09:39.588Z,0.20
2019-03-12T01:12:08.163Z,0.25
2019-03-12T01:14:36.854Z,0.30
2019-03-12T01:17:05.505Z,0.40
2019-03-12T01:19:34.123Z,0.30
2019-03-12T01:22:02.801Z,0.33
2019-03-12T01:24:31.449Z,0.30
2019-03-12T01:27:00.091Z,0.28
2019-03-12T01:29:28.757Z,0.30
2019-03-12T01:31:57.389Z,0.30
2019-03-12T01:34:26.080Z,0.40
2019-03-12T01:36:54.720Z,0.30
2019-03-12T01:39:23.357Z,0.40
2019-03-12T01:41:52.040Z,0.40
2019-03-12T01:44:20.670Z,0.42
2019-03-12T01:46:49.350Z,0.40
2019-03-12T01:49:17.982Z,0.50
2019-03-12T01:51:46.623Z,0.33
2019-03-12T01:54:15.304Z,0.37
2019-03-12T01:56:43.931Z,0.50
2019-03-12T01:59:12.625Z,0.40
2019-03-12T02:01:41.261Z,0.50
2019-03-12T02:04:09.898Z,0.60
2019-03-12T02:06:38.574Z,0.53
2019-03-12T02:09:08.313Z,0.65
2019-03-12T02:11:37.043Z,0.50
2019-03-12T02:14:23.410Z,0.40
2019-03-12T02:16:52.101Z,0.55
2019-03-12T02:19:20.738Z,0.50
2019-03-12T02:21:49.392Z,0.45
2019-03-12T02:24:18.067Z,0.50
2019-03-12T02:26:46.716Z,0.40
2019-03-12T02:29:15.410Z,0.50
2019-03-12T02:31:44.070Z,0.40
2019-03-12T02:34:12.706Z,0.50
2019-03-12T02:36:41.386Z,0.30
2019-03-12T02:39:10.031Z,0.60
2019-03-12T02:41:38.731Z,0.47
2019-03-12T02:44:07.368Z,0.57
2019-03-12T02:46:36.479Z,0.70
2019-03-12T02:49:09.029Z,0.78
2019-03-12T02:51:35.552Z,0.72
2019-03-12T02:54:04.268Z,0.70
2019-03-12T02:56:32.895Z,0.88
2019-03-12T02:59:01.527Z,0.62
2019-03-12T03:01:30.220Z,0.75
2019-03-12T03:03:58.865Z,0.80
2019-03-12T03:06:29.123Z,0.88
2019-03-12T03:08:57.771Z,0.75
2019-03-12T03:11:26.422Z,0.80
2019-03-12T03:13:55.105Z,0.70
2019-03-12T03:16:24.396Z,0.70
2019-03-12T03:18:53.638Z,0.70
2019-03-12T03:21:22.267Z,0.75
2019-03-12T03:23:51.001Z,0.85
2019-03-12T03:26:19.653Z,0.80
2019-03-12T03:28:48.292Z,0.68
2019-03-12T03:31:16.996Z,0.85
2019-03-12T03:33:45.552Z,0.90
2019-03-12T03:36:14.236Z,0.60
2019-03-12T03:38:42.880Z,0.80
2019-03-12T03:41:11.543Z,0.70
2019-03-12T03:43:40.199Z,0.60
2019-03-12T03:46:08.853Z,0.60
2019-03-12T03:48:37.553Z,0.62
2019-03-12T03:51:06.200Z,0.53
2019-03-12T03:53:34.872Z,0.50
2019-03-12T03:56:03.552Z,0.50
2019-03-12T03:58:32.197Z,0.60
2019-03-12T04:01:00.918Z,0.47
2019-03-12T04:03:29.558Z,0.60
2019-03-12T04:05:58.198Z,0.40
2019-03-12T04:08:26.891Z,0.57
2019-03-12T04:10:55.554Z,0.40
2019-03-12T04:13:24.245Z,0.53
2019-03-12T04:15:52.893Z,0.55
2019-03-12T04:18:21.522Z,0.65
2019-03-12T04:20:50.208Z,0.50
2019-03-12T04:23:18.868Z,0.60
2019-03-12T04:25:47.560Z,0.60
2019-03-12T04:28:16.206Z,0.80
2019-03-12T04:30:44.838Z,0.75
2019-03-12T04:33:51.685Z,0.68
2019-03-12T04:36:20.402Z,0.72
2019-03-12T04:38:49.045Z,0.75
2019-03-12T04:41:17.701Z,0.78
2019-03-12T04:43:46.408Z,0.75
2019-03-12T04:46:15.042Z,0.82
2019-03-12T04:48:44.479Z,0.88
2019-03-12T04:51:13.156Z,0.80
2019-03-12T04:53:41.789Z,1.00
2019-03-12T04:56:10.490Z,1.10
2019-03-12T04:58:39.140Z,1.37
2019-03-12T05:01:07.835Z,0.98
2019-03-12T05:03:36.494Z,0.93
2019-03-12T05:06:05.139Z,0.90
2019-03-12T05:08:33.798Z,0.90
2019-03-12T05:11:02.453Z,0.85
2019-03-12T05:13:31.169Z,1.00
2019-03-12T05:15:59.803Z,0.90
2019-03-12T05:18:28.455Z,1.30
2019-03-12T05:20:57.123Z,1.20
2019-03-12T05:23:25.753Z,1.10
2019-03-12T05:25:54.433Z,0.80
2019-03-12T05:28:23.074Z,0.95
2019-03-12T05:30:51.716Z,1.00
2019-03-12T05:33:20.387Z,1.10
2019-03-12T05:35:49.037Z,1.17
2019-03-12T05:38:17.674Z,1.10
2019-03-12T05:40:46.368Z,0.95
2019-03-12T05:43:15.032Z,0.95
2019-03-12T05:45:43.730Z,0.80
2019-03-12T05:48:12.390Z,0.90
2019-03-12T05:50:41.018Z,0.78
2019-03-12T05:53:14.690Z,0.82
2019-03-12T05:55:43.327Z,0.72
2019-03-12T05:58:11.986Z,0.72
2019-03-12T06:00:40.677Z,0.70
2019-03-12T06:03:09.309Z,0.80
2019-03-12T06:05:37.977Z,1.50
2019-03-12T06:08:06.625Z,1.98
2019-03-12T06:10:35.276Z,1.67
2019-03-12T06:13:03.970Z,2.10
2019-03-12T06:15:32.605Z,1.75
2019-03-12T06:18:01.305Z,1.50
2019-03-12T06:20:29.937Z,1.40
2019-03-12T06:22:58.605Z,1.60
2019-03-12T06:25:27.316Z,1.20
2019-03-12T06:27:55.963Z,1.42
2019-03-12T06:30:25.833Z,1.62
2019-03-12T06:33:02.405Z,1.60
2019-03-12T06:35:44.649Z,1.55
2019-03-12T06:38:17.738Z,1.80
2019-03-12T06:40:56.914Z,2.00
2019-03-12T06:43:39.168Z,2.77
2019-03-12T06:49:02.876Z,3.87
2019-03-12T06:51:33.154Z,4.37
2019-03-12T06:54:21.656Z,3.17
2019-03-12T06:57:00.982Z,2.85
2019-03-12T06:59:31.191Z,1.70
2019-03-12T07:02:01.429Z,1.35
2019-03-12T07:04:31.685Z,1.12
2019-03-12T07:07:01.971Z,0.90
2019-03-12T07:09:32.278Z,1.15
2019-03-12T07:12:05.513Z,0.90
2019-03-12T07:14:38.493Z,1.00
2019-03-12T07:17:11.439Z,0.80
2019-03-12T07:19:44.472Z,1.00
2019-03-12T07:22:20.665Z,1.10
2019-03-12T07:25:07.173Z,0.80
2019-03-12T07:27:40.403Z,0.60
2019-03-12T07:30:13.144Z,0.50
2019-03-12T07:33:01.623Z,0.40
2019-03-12T07:35:31.826Z,0.60
2019-03-12T07:38:02.015Z,0.50
2019-03-12T07:40:41.349Z,0.50
2019-03-12T07:43:11.574Z,0.42
2019-03-12T07:45:50.849Z,0.50
2019-03-12T07:48:27.004Z,0.40
2019-03-12T07:51:00.423Z,0.57
2019-03-12T07:53:58.663Z,0.40
2019-03-12T07:56:26.547Z,0.55
2019-03-12T07:59:09.183Z,0.60
2019-03-12T08:01:45.400Z,0.50
2019-03-12T08:04:30.591Z,0.68
2019-03-12T08:07:09.635Z,0.82
2019-03-12T08:09:42.686Z,0.53
2019-03-12T08:12:29.171Z,0.60
2019-03-12T08:15:02.170Z,0.50
2019-03-12T08:17:38.417Z,0.40
2019-03-12T08:20:13.114Z,0.40
2019-03-12T08:22:43.403Z,0.13
2019-03-12T08:25:16.588Z,0.40
2019-03-12T08:27:46.852Z,0.40
2019-03-12T08:30:29.059Z,0.28
2019-03-12T08:32:59.439Z,0.30
2019-03-12T08:35:38.533Z,0.20
2019-03-12T08:38:14.633Z,0.28
2019-03-12T08:40:56.995Z,0.10
2019-03-12T08:43:33.216Z,0.28
2019-03-12T08:46:22.346Z,0.30
2019-03-12T08:49:05.052Z,0.15
2019-03-12T08:51:41.195Z,0.10
2019-03-12T08:54:26.479Z,0.28
2019-03-12T08:56:56.730Z,0.60
2019-03-12T08:59:32.735Z,0.40
2019-03-12T09:02:05.784Z,0.40
2019-03-12T09:04:36.030Z,0.13
2019-03-12T09:07:15.213Z,0.30
2019-03-12T09:09:48.482Z,0.30
2019-03-12T09:12:18.693Z,0.20
2019-03-12T09:14:51.739Z,0.20
2019-03-12T09:17:31.275Z,0.50
2019-03-12T09:20:17.655Z,0.60
2019-03-12T09:22:47.871Z,0.28
2019-03-12T09:25:33.437Z,0.60
2019-03-12T09:28:06.146Z,0.20
2019-03-12T09:30:48.489Z,0.30
2019-03-12T09:33:34.135Z,0.20
2019-03-12T09:36:04.421Z,0.28
2019-03-12T09:38:40.358Z,0.20
2019-03-12T09:41:16.404Z,0.30
2019-03-12T09:43:55.389Z,0.20
2019-03-12T09:46:37.870Z,0.10
2019-03-12T09:49:08.091Z,0.20
2019-03-12T09:51:38.305Z,0.20
2019-03-12T09:54:08.547Z,0.30
2019-03-12T09:56:41.766Z,0.10
2019-03-12T09:59:23.901Z,0.20
2019-03-12T10:02:10.369Z,0.10
2019-03-12T10:04:52.608Z,0.20
2019-03-12T10:07:31.976Z,0.20
2019-03-12T10:10:02.173Z,0.17
2019-03-12T10:12:35.547Z,0.30
2019-03-12T10:15:07.761Z,0.20
2019-03-12T10:17:46.784Z,0.30
2019-03-12T10:20:17.003Z,0.10
2019-03-12T10:22:53.287Z,0.30
2019-03-12T10:25:39.940Z,0.30
2019-03-12T10:28:10.174Z,0.20
2019-03-12T10:30:40.387Z,0.20
2019-03-12T10:33:16.674Z,0.30
2019-03-12T10:36:01.969Z,0.30
2019-03-12T10:39:14.395Z,0.30
2019-03-12T10:41:44.611Z,0.30
2019-03-12T10:44:14.863Z,0.35
2019-03-12T10:46:48.077Z,0.20
2019-03-12T10:49:16.793Z,0.30
2019-03-12T10:51:45.444Z,0.30
2019-03-12T10:54:14.093Z,0.50
2019-03-12T10:56:44.975Z,0.30
2019-03-12T10:59:13.691Z,0.30
2019-03-12T11:01:42.375Z,0.30
2019-03-12T11:04:11.006Z,0.50
2019-03-12T11:06:39.666Z,0.30
2019-03-12T11:09:08.347Z,0.30
2019-03-12T11:11:36.979Z,0.23
2019-03-12T11:14:05.654Z,0.50
2019-03-12T11:16:34.303Z,0.33
2019-03-12T11:19:02.945Z,0.40
2019-03-12T11:21:31.624Z,0.30
2019-03-12T11:24:00.271Z,0.50
2019-03-12T11:26:28.980Z,0.20
2019-03-12T11:28:57.629Z,0.70
2019-03-12T11:31:26.278Z,0.47
2019-03-12T11:33:54.946Z,0.40
2019-03-12T11:36:23.607Z,0.30
2019-03-12T11:38:52.285Z,0.28
2019-03-12T11:41:20.977Z,0.40
2019-03-12T11:43:49.563Z,0.30
2019-03-12T11:46:18.241Z,0.37
2019-03-12T11:48:46.888Z,0.40
2019-03-12T11:51:15.575Z,0.40
2019-03-12T11:53:44.209Z,0.20
2019-03-12T11:56:12.855Z,0.45
2019-03-12T11:58:41.515Z,0.20
2019-03-12T12:01:10.154Z,0.20
2019-03-12T12:03:38.847Z,0.30
2019-03-12T12:06:07.497Z,0.30
2019-03-12T12:08:36.138Z,0.20
2019-03-12T12:11:04.816Z,0.40
2019-03-12T12:13:33.451Z,0.50
2019-03-12T12:16:02.159Z,0.75
2019-03-12T12:18:30.789Z,0.50
2019-03-12T12:20:59.439Z,0.50
2019-03-12T12:23:28.131Z,0.33
2019-03-12T12:25:56.789Z,0.40
2019-03-12T12:28:25.464Z,0.45
2019-03-12T12:30:54.109Z,0.30
2019-03-12T12:33:22.808Z,0.60
2019-03-12T12:35:51.471Z,0.50
2019-03-12T12:38:20.112Z,0.42
2019-03-12T12:40:48.802Z,0.57
2019-03-12T12:43:17.461Z,0.50
2019-03-12T12:45:46.156Z,0.62
2019-03-12T12:48:14.807Z,0.50
2019-03-12T12:50:43.457Z,0.40
2019-03-12T12:53:12.153Z,0.40
2019-03-12T12:55:40.786Z,0.50
2019-03-12T12:58:09.480Z,0.42
2019-03-12T13:00:38.579Z,0.60
2019-03-12T13:03:07.671Z,0.55
2019-03-12T13:05:36.470Z,0.60
2019-03-12T13:08:05.115Z,0.50
2019-03-12T13:10:34.993Z,0.82
2019-03-12T13:13:03.654Z,0.40
2019-03-12T13:15:32.286Z,0.42
2019-03-12T13:18:00.981Z,0.33
2019-03-12T13:20:29.617Z,0.40
2019-03-12T13:23:02.991Z,0.42
2019-03-12T13:25:31.630Z,0.40
2019-03-12T13:28:00.280Z,0.42
2019-03-12T13:30:28.950Z,0.35
2019-03-12T13:32:57.583Z,0.20
2019-03-12T13:35:26.297Z,0.28
2019-03-12T13:37:54.940Z,0.42
2019-03-12T13:40:24.815Z,0.90
2019-03-12T13:42:53.699Z,0.53
2019-03-12T13:45:26.766Z,0.60
2019-03-12T13:47:56.003Z,0.40
2019-03-12T13:50:24.997Z,0.60
2019-03-12T13:52:53.715Z,0.60
2019-03-12T13:55:22.361Z,0.55
2019-03-12T13:57:51.023Z,0.60
2019-03-12T14:00:27.720Z,0.40
2019-03-12T14:02:56.356Z,0.40
2019-03-12T14:05:24.999Z,0.35
2019-03-12T14:07:53.697Z,0.70
2019-03-12T14:10:23.544Z,0.30
2019-03-12T14:12:53.140Z,0.50
2019-03-12T14:15:33.263Z,0.50
2019-03-12T14:18:01.958Z,0.40
2019-03-12T14:20:47.811Z,0.80
2019-03-12T14:23:28.241Z,0.70
2019-03-12T14:25:56.884Z,0.50
2019-03-12T14:28:25.545Z,0.40
2019-03-12T14:30:54.228Z,0.42
2019-03-12T14:33:22.882Z,0.40
2019-03-12T14:35:52.369Z,0.30
2019-03-12T14:38:21.224Z,0.35
2019-03-12T14:40:49.859Z,0.40
2019-03-12T14:43:18.529Z,0.72
2019-03-12T14:45:54.348Z,0.50
2019-03-12T14:48:44.171Z,0.50
2019-03-12T14:51:18.750Z,0.30
2019-03-12T14:53:50.569Z,0.33
2019-03-12T14:56:19.214Z,0.40
2019-03-12T14:58:51.027Z,0.70
2019-03-12T15:01:18.217Z,0.60
2019-03-12T15:03:46.859Z,0.60
2019-03-12T15:06:15.568Z,0.60
2019-03-12T15:08:44.220Z,0.40
2019-03-12T15:11:12.878Z,0.72
2019-03-12T15:13:41.542Z,0.50
2019-03-12T15:16:10.201Z,0.40
2019-03-12T15:18:38.914Z,0.40
2019-03-12T15:21:07.568Z,0.40
2019-03-12T15:23:36.212Z,0.88
2019-03-12T15:26:04.919Z,0.57
2019-03-12T15:28:33.551Z,0.65
2019-03-12T15:31:02.557Z,0.50
2019-03-12T15:33:31.304Z,0.88
2019-03-12T15:35:59.938Z,0.55
2019-03-12T15:38:28.622Z,0.50
2019-03-12T15:40:57.280Z,0.62
2019-03-12T15:43:26.108Z,1.00
2019-03-12T15:45:54.759Z,0.72
2019-03-12T15:48:23.412Z,0.45
2019-03-12T15:50:52.113Z,0.90
2019-03-12T15:53:20.764Z,0.70
2019-03-12T15:55:49.469Z,0.60
2019-03-12T15:58:18.116Z,0.60
2019-03-12T16:00:46.764Z,0.55
2019-03-12T16:03:15.477Z,0.60
2019-03-12T16:05:44.128Z,0.70
2019-03-12T16:08:12.834Z,1.00
2019-03-12T16:10:41.490Z,0.90
2019-03-12T16:13:10.132Z,1.32
2019-03-12T16:15:38.873Z,0.90
2019-03-12T16:18:07.476Z,0.70
2019-03-12T16:20:36.176Z,0.40
2019-03-12T16:23:04.965Z,0.70
2019-03-12T16:25:33.588Z,0.57
2019-03-12T16:28:02.276Z,0.60
2019-03-12T16:30:31.071Z,0.70
2019-03-12T16:32:59.880Z,0.90
2019-03-12T16:35:28.499Z,0.70
2019-03-12T16:37:57.189Z,0.70
2019-03-12T16:40:25.828Z,0.60
2019-03-12T16:42:54.679Z,0.70
2019-03-12T16:45:23.313Z,0.82
2019-03-12T16:47:52.090Z,1.00
2019-03-12T16:50:20.744Z,1.02
2019-03-12T16:52:49.391Z,0.80
2019-03-12T16:55:18.596Z,2.35
2019-03-12T16:57:47.342Z,3.12
2019-03-12T17:00:20.542Z,2.77
2019-03-12T17:02:49.224Z,2.40
2019-03-12T17:05:18.008Z,1.50
2019-03-12T17:07:47.647Z,1.10
2019-03-12T17:10:18.154Z,1.30
2019-03-12T17:12:46.914Z,1.37
2019-03-12T17:15:22.721Z,1.77
2019-03-12T17:17:51.587Z,2.20
2019-03-12T17:20:20.356Z,1.55
2019-03-12T17:22:49.122Z,1.20
2019-03-12T17:25:17.919Z,1.42
2019-03-12T17:27:46.544Z,0.90
2019-03-12T17:30:21.190Z,1.05
2019-03-12T17:32:50.061Z,1.12
2019-03-12T17:35:35.937Z,1.30
2019-03-12T17:38:04.571Z,1.10
2019-03-12T17:40:33.219Z,1.50
2019-03-12T17:43:01.914Z,1.72
2019-03-12T17:45:30.577Z,1.90
2019-03-12T17:47:59.424Z,2.20
2019-03-12T17:50:28.066Z,2.50
2019-03-12T17:52:56.866Z,2.40
2019-03-12T17:55:25.668Z,2.30
2019-03-12T17:57:54.301Z,2.15
2019-03-12T18:00:28.597Z,1.98
2019-03-12T18:02:57.631Z,1.52
2019-03-12T18:05:26.805Z,1.92
2019-03-12T18:07:55.495Z,1.20
2019-03-12T18:10:24.279Z,1.30
2019-03-12T18:12:52.941Z,1.05
2019-03-12T18:15:22.148Z,1.40
2019-03-12T18:17:50.810Z,1.10
2019-03-12T18:20:21.856Z,1.15
2019-03-12T18:22:50.494Z,1.47
2019-03-12T18:25:25.096Z,1.40
2019-03-12T18:27:53.751Z,1.60
2019-03-12T18:30:22.545Z,1.77
2019-03-12T18:32:51.227Z,1.77
2019-03-12T18:35:20.076Z,1.90
2019-03-12T18:37:48.962Z,2.17
2019-03-12T18:40:22.189Z,2.62
2019-03-12T18:42:51.141Z,2.72
2019-03-12T18:45:31.083Z,2.65
2019-03-12T18:48:00.229Z,3.50
2019-03-12T18:50:29.171Z,3.00
2019-03-12T18:52:57.959Z,2.85
2019-03-12T18:55:32.876Z,2.90
2019-03-12T18:58:02.434Z,2.92
2019-03-12T19:00:31.818Z,2.52
2019-03-12T19:03:00.472Z,2.67
2019-03-12T19:05:29.118Z,2.77
2019-03-12T19:07:57.959Z,2.87
2019-03-12T19:10:26.587Z,2.60
2019-03-12T19:12:55.288Z,2.92
2019-03-12T19:15:23.944Z,3.02
2019-03-12T19:17:52.582Z,2.65
2019-03-12T19:20:21.267Z,2.62
2019-03-12T19:22:49.919Z,2.47
2019-03-12T19:25:38.416Z,2.77
2019-03-12T19:28:06.498Z,2.60
2019-03-12T19:30:35.257Z,2.52
2019-03-12T19:33:06.639Z,2.40
2019-03-12T19:35:35.713Z,2.83
2019-03-12T19:38:04.682Z,4.28
2019-03-12T19:40:54.724Z,4.80
2019-03-12T19:43:23.689Z,5.75
2019-03-12T19:45:52.783Z,5.75
2019-03-12T19:48:21.741Z,6.25
2019-03-12T19:50:50.729Z,6.70
2019-03-12T19:53:21.155Z,5.75
2019-03-12T19:56:02.184Z,5.55
2019-03-12T19:58:31.256Z,5.50
2019-03-12T20:01:01.436Z,6.03
2019-03-12T20:03:32.033Z,5.25
2019-03-12T20:06:00.978Z,6.22
2019-03-12T20:08:29.960Z,5.40
2019-03-12T20:11:27.603Z,5.42
2019-03-12T20:14:32.639Z,5.35
2019-03-12T20:17:32.990Z,5.92
2019-03-12T20:20:24.727Z,5.17
2019-03-12T20:23:19.382Z,4.97
2019-03-12T20:26:16.949Z,5.67
2019-03-12T20:29:21.969Z,4.45
2019-03-12T20:32:23.403Z,4.30
2019-03-12T20:34:55.199Z,4.10
2019-03-12T20:37:46.789Z,4.28
2019-03-12T20:40:44.378Z,4.50
2019-03-12T20:43:39.711Z,4.55
2019-03-12T20:46:43.232Z,4.83
2019-03-12T20:49:27.382Z,5.10
2019-03-12T20:52:32.316Z,5.37
2019-03-12T20:55:12.693Z,5.95
2019-03-12T20:58:17.501Z,6.05
2019-03-12T21:01:16.368Z,6.40
2019-03-12T21:04:23.005Z,6.92
2019-03-12T21:07:29.449Z,6.50
2019-03-12T21:10:17.701Z,6.70
2019-03-12T21:13:10.216Z,7.10
2019-03-12T21:18:50.788Z,6.67
2019-03-12T21:21:34.554Z,6.72
2019-03-12T21:24:15.258Z,6.20
2019-03-12T21:26:52.783Z,6.97
2019-03-12T21:29:30.716Z,6.20
2019-03-12T21:31:59.526Z,6.95
2019-03-12T21:34:28.213Z,5.53
2019-03-12T21:36:56.875Z,5.92
2019-03-12T21:39:25.582Z,5.75
2019-03-12T21:41:54.214Z,5.12
2019-03-12T21:44:23.120Z,5.35
2019-03-12T21:46:51.786Z,5.60
2019-03-12T21:49:20.421Z,5.45
2019-03-12T21:51:49.243Z,5.45
2019-03-12T21:54:17.905Z,4.65
2019-03-12T21:56:46.594Z,4.70
2019-03-12T21:59:15.226Z,4.58
2019-03-12T22:01:43.866Z,4.58
2019-03-12T22:04:12.554Z,4.50
2019-03-12T22:06:41.230Z,4.45
2019-03-12T22:09:09.964Z,4.70
2019-03-12T22:11:38.598Z,4.00
2019-03-12T22:14:07.249Z,4.20
2019-03-12T22:16:35.932Z,4.22
2019-03-12T22:19:04.722Z,4.50
2019-03-12T22:21:44.139Z,4.72
2019-03-12T22:24:14.503Z,4.62
2019-03-12T22:26:43.297Z,4.87
2019-03-12T22:29:11.924Z,4.70
2019-03-12T22:31:40.705Z,4.53
2019-03-12T22:34:09.515Z,4.35
2019-03-12T22:36:38.275Z,4.47
2019-03-12T22:39:07.146Z,4.58
2019-03-12T22:41:35.820Z,4.70
2019-03-12T22:44:04.604Z,4.33
2019-03-12T22:46:33.266Z,4.50
2019-03-12T22:49:01.902Z,4.00
2019-03-12T22:51:30.698Z,4.22
2019-03-12T22:53:59.350Z,4.05
2019-03-12T22:56:28.013Z,4.42
2019-03-12T22:58:56.839Z,4.40
2019-03-12T23:01:25.634Z,4.08
2019-03-12T23:03:54.359Z,3.77
2019-03-12T23:06:23.165Z,4.67
2019-03-12T23:08:51.787Z,4.33
2019-03-12T23:11:20.631Z,3.95
2019-03-12T23:13:49.242Z,4.50
2019-03-12T23:16:17.928Z,4.03
2019-03-12T23:18:46.571Z,4.37
2019-03-12T23:21:15.251Z,4.10
2019-03-12T23:23:43.936Z,3.98
2019-03-12T23:26:12.575Z,4.33
2019-03-12T23:28:41.266Z,4.28
2019-03-12T23:31:09.906Z,3.77
2019-03-12T23:33:38.586Z,4.28
2019-03-12T23:36:07.258Z,4.22
2019-03-12T23:38:35.912Z,4.17
2019-03-12T23:41:04.681Z,4.30
2019-03-12T23:43:33.347Z,4.78
2019-03-12T23:46:02.031Z,4.83
2019-03-12T23:48:30.727Z,4.70
2019-03-12T23:50:59.482Z,3.80
2019-03-12T23:53:28.174Z,4.72
2019-03-12T23:55:56.828Z,4.58
2019-03-12T23:58:29.000Z,4.03
